Etusivu
METAR-TAF:

METAR-TAF

Lentoasemat :

Vilhelminan, Ruotsi

Leveyspiiri: 64-34-44N, Pituuspiiri: 016-50-00E, korkeus merenpinnasta: 347 m

Tämänhetkinen sää

Tämä raportti tehtiin 31 minuuttia sitten, kello 13.50 UTC
tyyntä
Lämpötila -13°C
Kosteus 85%
Ilmanpaine 1012 hPa
Näkyvyys: 1700 m
heikkoa lumisadetta

METAR: ESNV 221350Z AUTO 00000KT 1700 -SN ////// M13/M15 Q1012

Aika: 15:21 (14:21 UTC)


TAF: puuttuu

Säähavainnot ja -ennusteet yli 4000 lentoasemalta (METAR- ja TAF-raportit).

Käytössä olevat sääasemat on merkitty karttaan keltaisilla ja punaisilla pisteillä.

Aseta hiiri pisteen päälle nähdäksesi sääaseman nimen.

Klikkaa sitten nähdäksesi säähavainnot ja -ennusteet.

Kartan vaihtaminen: klikkaa mustalla rastilla varustettuja vihreitä pisteitä, niin voit zoomata sisään; viivalla varustettua vihreää pistettä, niin voit zoomata ulos tai vihreitä nuolia, niin pääset viereisille kartoille.


METAR-TAF: